createdAt,value
2023-01-20T00:01:28.203Z,5.80
2023-01-20T00:03:58.740Z,6.57
2023-01-20T00:06:29.900Z,6.37
2023-01-20T00:09:00.532Z,6.00
2023-01-20T00:11:28.423Z,6.03
2023-01-20T00:14:00.160Z,6.63
2023-01-20T00:16:27.189Z,5.83
2023-01-20T00:18:54.492Z,6.40
2023-01-20T00:21:21.698Z,6.07
2023-01-20T00:23:49.151Z,6.33
2023-01-20T00:26:19.372Z,7.33
2023-01-20T00:28:46.571Z,6.30
2023-01-20T00:31:42.908Z,7.90
2023-01-20T00:34:09.999Z,6.60
2023-01-20T00:36:36.526Z,7.93
2023-01-20T00:39:04.077Z,6.73
2023-01-20T00:41:32.317Z,6.73
2023-01-20T00:43:59.187Z,7.23
2023-01-20T00:46:25.967Z,7.17
2023-01-20T00:48:52.554Z,7.43
2023-01-20T00:51:19.061Z,7.10
2023-01-20T00:53:45.631Z,7.07
2023-01-20T00:56:12.112Z,7.37
2023-01-20T00:58:38.884Z,7.23
2023-01-20T01:01:05.694Z,7.87
2023-01-20T01:03:32.325Z,7.50
2023-01-20T01:06:18.519Z,7.37
2023-01-20T01:08:45.567Z,7.37
2023-01-20T01:11:13.023Z,7.23
2023-01-20T01:13:39.735Z,6.77
2023-01-20T01:16:12.520Z,6.97
2023-01-20T01:18:39.718Z,6.90
2023-01-20T01:21:08.716Z,7.47
2023-01-20T01:23:35.325Z,7.17
2023-01-20T01:26:01.851Z,7.43
2023-01-20T01:28:28.325Z,7.30
2023-01-20T01:30:54.950Z,6.80
2023-01-20T01:33:22.056Z,6.80
2023-01-20T01:35:59.801Z,6.87
2023-01-20T01:38:27.371Z,6.87
2023-01-20T01:40:55.472Z,6.47
2023-01-20T01:43:34.326Z,6.60
2023-01-20T01:46:01.060Z,6.67
2023-01-20T01:48:39.063Z,6.20
2023-01-20T01:51:19.458Z,7.40
2023-01-20T01:53:53.806Z,6.77
2023-01-20T01:56:25.967Z,6.70
2023-01-20T01:58:57.068Z,6.33
2023-01-20T02:01:24.581Z,6.53
2023-01-20T02:04:02.517Z,6.87
2023-01-20T02:06:33.401Z,6.97
2023-01-20T02:09:02.582Z,6.80
2023-01-20T02:11:31.495Z,6.93
2023-01-20T02:13:59.229Z,7.00
2023-01-20T02:16:42.911Z,6.80
2023-01-20T02:19:39.739Z,6.77
2023-01-20T02:22:25.880Z,6.77
2023-01-20T02:25:20.301Z,6.93
2023-01-20T02:28:28.931Z,7.30
2023-01-20T02:31:20.919Z,7.00
2023-01-20T02:34:00.840Z,7.27
2023-01-20T02:36:30.500Z,7.10
2023-01-20T02:39:07.655Z,6.80
2023-01-20T02:41:58.591Z,7.07
2023-01-20T02:44:30.159Z,6.80
2023-01-20T02:47:06.428Z,6.73
2023-01-20T02:49:39.385Z,6.67
2023-01-20T02:52:08.570Z,7.03
2023-01-20T02:54:39.637Z,6.90
2023-01-20T02:57:09.221Z,6.87
2023-01-20T02:59:41.973Z,7.50
2023-01-20T03:02:14.323Z,6.77
2023-01-20T03:04:47.796Z,6.40
2023-01-20T03:07:15.775Z,7.40
2023-01-20T03:09:47.586Z,7.33
2023-01-20T03:12:18.516Z,7.17
2023-01-20T03:14:45.191Z,7.30
2023-01-20T03:17:11.808Z,6.63
2023-01-20T03:19:38.334Z,6.70
2023-01-20T03:22:05.093Z,6.37
2023-01-20T03:24:36.032Z,7.37
2023-01-20T03:27:02.653Z,16.13
2023-01-20T03:29:30.599Z,17.80
2023-01-20T03:32:01.635Z,22.63
2023-01-20T03:34:32.545Z,36.73
2023-01-20T03:37:00.820Z,24.43
2023-01-20T03:39:28.349Z,9.13
2023-01-20T03:42:13.923Z,8.47
2023-01-20T03:45:31.165Z,7.33
2023-01-20T03:48:08.715Z,7.27
2023-01-20T03:50:47.763Z,7.40
2023-01-20T03:53:37.388Z,9.60
2023-01-20T03:56:09.107Z,8.40
2023-01-20T03:58:40.855Z,7.37
2023-01-20T04:01:17.910Z,10.10
2023-01-20T04:03:49.102Z,8.70
2023-01-20T04:06:18.014Z,8.93
2023-01-20T04:08:51.310Z,9.07
2023-01-20T04:11:18.041Z,8.97
2023-01-20T04:13:44.754Z,8.67
2023-01-20T04:16:15.715Z,8.70
2023-01-20T04:18:45.532Z,8.80
2023-01-20T04:21:29.842Z,7.83
2023-01-20T04:24:02.973Z,8.93
2023-01-20T04:26:29.502Z,8.43
2023-01-20T04:28:56.184Z,8.03
2023-01-20T04:31:30.624Z,9.33
2023-01-20T04:33:57.984Z,9.40
2023-01-20T04:36:24.851Z,8.53
2023-01-20T04:38:51.473Z,8.67
2023-01-20T04:41:18.176Z,9.93
2023-01-20T04:43:45.658Z,11.00
2023-01-20T04:46:13.448Z,11.10
2023-01-20T04:48:39.959Z,10.77
2023-01-20T04:51:07.765Z,9.00
2023-01-20T04:53:34.856Z,8.20
2023-01-20T04:56:01.402Z,9.17
2023-01-20T04:58:27.974Z,8.30
2023-01-20T05:00:54.774Z,7.93
2023-01-20T05:03:21.488Z,7.70
2023-01-20T05:05:54.815Z,7.73
2023-01-20T05:08:22.101Z,7.07
2023-01-20T05:10:49.523Z,7.40
2023-01-20T05:13:16.514Z,7.57
2023-01-20T05:15:44.480Z,7.60
2023-01-20T05:18:11.392Z,8.27
2023-01-20T05:20:37.942Z,8.67
2023-01-20T05:23:05.175Z,8.40
2023-01-20T05:25:31.728Z,7.87
2023-01-20T05:27:59.640Z,8.50
2023-01-20T05:30:26.263Z,8.70
2023-01-20T05:32:52.805Z,7.93
2023-01-20T05:35:19.858Z,8.13
2023-01-20T05:37:46.331Z,8.37
2023-01-20T05:40:13.707Z,9.03
2023-01-20T05:42:40.347Z,8.20
2023-01-20T05:45:07.412Z,9.40
2023-01-20T05:47:33.896Z,8.37
2023-01-20T05:50:01.668Z,9.50
2023-01-20T05:52:28.108Z,9.67
2023-01-20T05:54:54.656Z,9.50
2023-01-20T05:57:24.250Z,8.53
2023-01-20T05:59:52.337Z,8.33
2023-01-20T06:02:21.577Z,6.57
2023-01-20T06:04:49.711Z,8.20
2023-01-20T06:07:16.194Z,10.53
2023-01-20T06:09:42.777Z,8.60
2023-01-20T06:12:10.454Z,7.07
2023-01-20T06:14:36.971Z,6.77
2023-01-20T06:17:04.214Z,6.17
2023-01-20T06:19:31.959Z,6.57
2023-01-20T06:21:59.704Z,6.70
2023-01-20T06:24:26.175Z,6.97
2023-01-20T06:26:54.587Z,6.27
2023-01-20T06:29:21.533Z,8.33
2023-01-20T06:32:15.640Z,8.27
2023-01-20T06:34:43.272Z,9.27
2023-01-20T06:37:11.268Z,8.33
2023-01-20T06:39:43.472Z,7.63
2023-01-20T06:42:11.569Z,7.83
2023-01-20T06:44:39.248Z,7.23
2023-01-20T06:47:07.792Z,7.60
2023-01-20T06:49:35.721Z,7.37
2023-01-20T06:52:02.899Z,7.47
2023-01-20T06:54:30.968Z,7.20
2023-01-20T06:56:58.728Z,7.73
2023-01-20T06:59:27.662Z,6.70
2023-01-20T07:01:54.421Z,7.30
2023-01-20T07:04:21.320Z,7.43
2023-01-20T07:06:50.760Z,7.70
2023-01-20T07:09:18.336Z,6.70
2023-01-20T07:11:46.198Z,7.23
2023-01-20T07:14:14.806Z,7.67
2023-01-20T07:16:41.483Z,8.03
2023-01-20T07:19:08.052Z,11.37
2023-01-20T07:21:36.819Z,7.37
2023-01-20T07:24:05.354Z,10.40
2023-01-20T07:26:36.446Z,7.17
2023-01-20T07:29:03.010Z,7.27
2023-01-20T07:31:31.518Z,7.03
2023-01-20T07:33:58.472Z,6.63
2023-01-20T07:36:26.806Z,7.80
2023-01-20T07:38:54.066Z,9.73
2023-01-20T07:41:24.395Z,7.83
2023-01-20T07:43:54.385Z,7.80
2023-01-20T07:46:22.816Z,7.80
2023-01-20T07:48:50.653Z,32.17
2023-01-20T07:51:19.530Z,46.97
2023-01-20T07:53:48.264Z,27.03
2023-01-20T07:56:22.226Z,13.87
2023-01-20T07:58:50.577Z,10.07
2023-01-20T08:01:20.457Z,9.13
2023-01-20T08:03:51.279Z,10.57
2023-01-20T08:06:21.057Z,11.70
2023-01-20T08:08:48.119Z,11.33
2023-01-20T08:11:23.551Z,9.50
2023-01-20T08:13:50.285Z,7.40
2023-01-20T08:16:20.246Z,7.90
2023-01-20T08:18:47.223Z,8.73
2023-01-20T08:21:25.852Z,7.80
2023-01-20T08:23:56.677Z,8.53
2023-01-20T08:26:25.048Z,8.87
2023-01-20T08:28:52.207Z,8.73
2023-01-20T08:31:21.418Z,8.60
2023-01-20T08:33:51.684Z,8.00
2023-01-20T08:36:24.285Z,7.73
2023-01-20T08:38:51.072Z,7.40
2023-01-20T08:41:26.753Z,7.53
2023-01-20T08:43:55.078Z,9.20
2023-01-20T08:46:22.746Z,8.30
2023-01-20T08:48:50.556Z,9.00
2023-01-20T08:51:24.916Z,9.30
2023-01-20T08:53:51.853Z,8.67
2023-01-20T08:56:21.030Z,11.83
2023-01-20T08:58:47.920Z,18.53
2023-01-20T09:01:21.974Z,15.07
2023-01-20T09:04:03.489Z,9.13
2023-01-20T09:06:38.349Z,9.00
2023-01-20T09:09:06.236Z,9.63
2023-01-20T09:11:32.964Z,9.60
2023-01-20T09:14:02.044Z,10.60
2023-01-20T09:16:29.763Z,11.83
2023-01-20T09:18:57.257Z,11.17
2023-01-20T09:21:25.841Z,11.27
2023-01-20T09:23:52.694Z,12.07
2023-01-20T09:26:34.925Z,12.00
2023-01-20T09:29:10.319Z,12.60
2023-01-20T09:31:52.530Z,14.10
2023-01-20T09:34:27.288Z,13.37
2023-01-20T09:37:19.886Z,12.50
2023-01-20T09:40:07.172Z,11.17
2023-01-20T09:43:18.093Z,10.60
2023-01-20T09:46:09.042Z,9.77
2023-01-20T09:49:11.360Z,10.30
2023-01-20T09:52:18.798Z,8.90
2023-01-20T09:54:55.568Z,9.40
2023-01-20T09:57:25.061Z,9.40
2023-01-20T10:00:03.725Z,10.60
2023-01-20T10:02:37.888Z,10.00
2023-01-20T10:05:19.580Z,9.10
2023-01-20T10:07:56.729Z,12.00
2023-01-20T10:10:45.850Z,7.87
2023-01-20T10:13:21.476Z,8.57
2023-01-20T10:15:53.577Z,8.30
2023-01-20T10:18:27.015Z,8.13
2023-01-20T10:21:12.960Z,7.37
2023-01-20T10:23:51.165Z,7.63
2023-01-20T10:26:40.916Z,7.57
2023-01-20T10:29:13.441Z,7.43
2023-01-20T10:32:18.030Z,6.90
2023-01-20T10:34:47.326Z,7.07
2023-01-20T10:37:16.003Z,7.37
2023-01-20T10:39:58.305Z,6.93
2023-01-20T10:42:28.500Z,6.93
2023-01-20T10:44:55.348Z,7.10
2023-01-20T10:48:06.837Z,8.10
2023-01-20T10:51:10.521Z,7.70
2023-01-20T10:53:52.100Z,7.47
2023-01-20T10:56:41.290Z,7.20
2023-01-20T10:59:18.885Z,6.87
2023-01-20T11:01:56.262Z,7.97
2023-01-20T11:04:28.084Z,7.17
2023-01-20T11:07:00.145Z,6.50
2023-01-20T11:09:37.539Z,6.07
2023-01-20T11:12:11.201Z,5.20
2023-01-20T11:14:41.358Z,5.87
2023-01-20T11:17:14.676Z,6.23
2023-01-20T11:19:48.144Z,6.63
2023-01-20T11:22:25.988Z,6.77
2023-01-20T11:24:58.947Z,5.73
2023-01-20T11:27:47.941Z,6.07
2023-01-20T11:30:28.468Z,6.50
2023-01-20T11:33:28.656Z,6.07
2023-01-20T11:36:04.811Z,5.80
2023-01-20T11:38:48.529Z,6.00
2023-01-20T11:41:33.154Z,6.33
2023-01-20T11:44:08.861Z,6.00
2023-01-20T11:46:37.742Z,5.47
2023-01-20T11:49:24.400Z,6.10
2023-01-20T11:51:54.565Z,5.47
2023-01-20T11:54:29.734Z,5.90
2023-01-20T11:57:09.662Z,5.80
2023-01-20T11:59:50.033Z,5.40
2023-01-20T12:02:24.683Z,5.53
2023-01-20T12:05:03.518Z,5.23
2023-01-20T12:07:48.873Z,6.37
2023-01-20T12:10:26.452Z,5.83
2023-01-20T12:13:16.647Z,6.67
2023-01-20T12:15:52.867Z,5.83
2023-01-20T12:18:34.181Z,6.40
2023-01-20T12:21:18.108Z,5.97
2023-01-20T12:23:56.997Z,6.30
2023-01-20T12:26:26.057Z,5.60
2023-01-20T12:29:22.574Z,5.50
2023-01-20T12:31:49.918Z,6.00
2023-01-20T12:34:24.076Z,5.50
2023-01-20T12:36:59.895Z,5.77
2023-01-20T12:39:41.120Z,6.23
2023-01-20T12:42:10.794Z,5.57
2023-01-20T12:44:51.623Z,5.50
2023-01-20T12:47:27.637Z,5.00
2023-01-20T12:50:41.884Z,5.50
2023-01-20T12:53:49.170Z,5.37
2023-01-20T12:56:21.682Z,5.20
2023-01-20T12:59:17.252Z,5.40
2023-01-20T13:02:02.819Z,5.37
2023-01-20T13:04:35.470Z,6.40
2023-01-20T13:07:20.907Z,4.73
2023-01-20T13:10:11.815Z,5.30
2023-01-20T13:12:45.182Z,4.80
2023-01-20T13:15:28.862Z,4.60
2023-01-20T13:18:28.237Z,7.07
2023-01-20T13:20:57.714Z,4.17
2023-01-20T13:23:31.453Z,8.57
2023-01-20T13:26:00.002Z,4.47
2023-01-20T13:28:28.799Z,3.70
2023-01-20T13:31:02.022Z,4.07
2023-01-20T13:33:34.010Z,4.00
2023-01-20T13:36:14.511Z,4.07
2023-01-20T13:38:43.018Z,4.00
2023-01-20T13:41:12.719Z,5.17
2023-01-20T13:43:42.297Z,5.50
2023-01-20T13:46:08.754Z,6.23
2023-01-20T13:48:37.431Z,7.03
2023-01-20T13:51:26.609Z,5.90
2023-01-20T13:53:53.692Z,5.73
2023-01-20T13:56:26.370Z,5.83
2023-01-20T13:58:54.691Z,5.27
2023-01-20T14:01:21.399Z,5.40
2023-01-20T14:04:18.944Z,5.83
2023-01-20T14:06:51.509Z,5.80
2023-01-20T14:09:24.578Z,5.87
2023-01-20T14:11:55.205Z,4.93
2023-01-20T14:14:25.320Z,5.50
2023-01-20T14:16:55.759Z,5.30
2023-01-20T14:19:27.496Z,5.57
2023-01-20T14:21:56.711Z,7.33
2023-01-20T14:24:32.671Z,5.33
2023-01-20T14:27:20.633Z,5.17
2023-01-20T14:29:49.528Z,5.67
2023-01-20T14:32:22.780Z,5.50
2023-01-20T14:34:51.663Z,5.63
2023-01-20T14:37:32.025Z,5.70
2023-01-20T14:40:23.931Z,5.53
2023-01-20T14:43:00.364Z,5.70
2023-01-20T14:45:29.907Z,4.80
2023-01-20T14:47:57.985Z,4.60
2023-01-20T14:50:25.210Z,5.17
2023-01-20T14:52:56.987Z,5.27
2023-01-20T14:55:36.246Z,4.70
2023-01-20T14:58:31.529Z,5.90
2023-01-20T15:01:04.470Z,5.13
2023-01-20T15:03:32.847Z,12.60
2023-01-20T15:06:12.270Z,5.33
2023-01-20T15:08:38.760Z,5.47
2023-01-20T15:11:14.749Z,5.00
2023-01-20T15:13:44.121Z,5.33
2023-01-20T15:16:24.073Z,5.77
2023-01-20T15:19:19.846Z,5.80
2023-01-20T15:21:56.795Z,6.40
2023-01-20T15:24:30.610Z,5.60
2023-01-20T15:27:00.591Z,6.23
2023-01-20T15:29:36.970Z,5.77
2023-01-20T15:32:14.543Z,6.63
2023-01-20T15:34:42.175Z,6.10
2023-01-20T15:37:18.545Z,6.10
2023-01-20T15:39:45.890Z,5.77
2023-01-20T15:42:15.134Z,6.53
2023-01-20T15:44:41.774Z,6.93
2023-01-20T15:47:19.956Z,6.47
2023-01-20T15:49:47.029Z,6.80
2023-01-20T15:52:13.951Z,5.90
2023-01-20T15:54:40.796Z,4.90
2023-01-20T15:57:17.212Z,5.13
2023-01-20T15:59:47.567Z,5.43
2023-01-20T16:02:22.189Z,5.50
2023-01-20T16:04:51.194Z,4.87
2023-01-20T16:07:20.494Z,5.73
2023-01-20T16:09:47.379Z,6.23
2023-01-20T16:12:15.842Z,5.37
2023-01-20T16:14:43.353Z,6.40
2023-01-20T16:17:23.509Z,7.10
2023-01-20T16:19:51.323Z,6.37
2023-01-20T16:22:19.097Z,7.40
2023-01-20T16:24:49.053Z,7.43
2023-01-20T16:27:22.460Z,6.63
2023-01-20T16:29:49.884Z,5.70
2023-01-20T16:32:18.681Z,6.50
2023-01-20T16:34:48.080Z,5.43
2023-01-20T16:37:15.981Z,5.13
2023-01-20T16:39:43.303Z,7.20
2023-01-20T16:42:12.373Z,6.10
2023-01-20T16:44:39.145Z,6.47
2023-01-20T16:47:08.473Z,8.63
2023-01-20T16:49:35.550Z,6.60
2023-01-20T16:52:04.410Z,6.10
2023-01-20T16:54:34.030Z,4.60
2023-01-20T16:57:00.660Z,12.80
2023-01-20T16:59:27.296Z,8.70
2023-01-20T17:01:55.266Z,7.40
2023-01-20T17:04:23.143Z,7.00
2023-01-20T17:06:52.344Z,7.23
2023-01-20T17:09:18.855Z,6.67
2023-01-20T17:11:45.375Z,7.17
2023-01-20T17:14:11.913Z,6.23
2023-01-20T17:16:39.306Z,6.97
2023-01-20T17:19:06.418Z,9.50
2023-01-20T17:21:37.016Z,16.97
2023-01-20T17:24:05.107Z,12.90
2023-01-20T17:26:34.674Z,13.00
2023-01-20T17:29:04.653Z,10.00
2023-01-20T17:31:35.365Z,9.77
2023-01-20T17:34:06.849Z,8.60
2023-01-20T17:36:35.188Z,8.17
2023-01-20T17:39:05.213Z,8.47
2023-01-20T17:41:32.371Z,9.50
2023-01-20T17:43:58.987Z,9.77
2023-01-20T17:46:28.497Z,9.13
2023-01-20T17:48:57.296Z,9.60
2023-01-20T17:51:26.113Z,8.97
2023-01-20T17:53:56.244Z,9.20
2023-01-20T17:56:28.183Z,8.10
2023-01-20T17:58:55.930Z,10.73
2023-01-20T18:01:31.771Z,11.93
2023-01-20T18:04:02.911Z,9.60
2023-01-20T18:06:31.619Z,8.23
2023-01-20T18:09:00.505Z,7.83
2023-01-20T18:11:30.618Z,10.30
2023-01-20T18:13:59.092Z,13.90
2023-01-20T18:16:33.262Z,15.43
2023-01-20T18:19:01.227Z,34.10
2023-01-20T18:21:30.554Z,58.10
2023-01-20T18:24:00.593Z,60.83
2023-01-20T18:26:34.779Z,25.13
2023-01-20T18:29:05.297Z,22.03
2023-01-20T18:31:36.398Z,20.43
2023-01-20T18:34:07.036Z,9.33
2023-01-20T18:36:42.070Z,30.43
2023-01-20T18:39:16.376Z,40.80
2023-01-20T18:41:44.951Z,38.17
2023-01-20T18:44:12.312Z,32.20
2023-01-20T18:46:41.998Z,21.17
2023-01-20T18:49:25.105Z,26.17
2023-01-20T18:52:53.830Z,12.20
2023-01-20T18:55:08.037Z,10.10
2023-01-20T18:57:34.654Z,16.20
2023-01-20T19:00:03.114Z,13.23
2023-01-20T19:02:30.909Z,11.43
2023-01-20T19:04:57.480Z,10.43
2023-01-20T19:07:24.087Z,10.27
2023-01-20T19:09:51.055Z,11.17
2023-01-20T19:12:21.826Z,14.50
2023-01-20T19:14:55.810Z,14.17
2023-01-20T19:17:22.345Z,12.50
2023-01-20T19:19:50.156Z,11.43
2023-01-20T19:22:16.988Z,14.10
2023-01-20T19:24:43.826Z,9.40
2023-01-20T19:27:10.465Z,8.67
2023-01-20T19:29:38.529Z,10.27
2023-01-20T19:32:05.059Z,10.20
2023-01-20T19:34:31.541Z,11.60
2023-01-20T19:37:00.532Z,20.83
2023-01-20T19:39:27.441Z,12.50
2023-01-20T19:41:54.059Z,10.27
2023-01-20T19:44:20.619Z,9.77
2023-01-20T19:46:47.083Z,10.40
2023-01-20T19:49:13.634Z,8.40
2023-01-20T19:51:40.266Z,9.07
2023-01-20T19:54:06.937Z,9.83
2023-01-20T19:56:35.038Z,8.90
2023-01-20T19:59:02.435Z,7.10
2023-01-20T20:01:36.767Z,6.63
2023-01-20T20:04:12.768Z,7.70
2023-01-20T20:06:45.041Z,6.87
2023-01-20T20:09:23.303Z,6.40
2023-01-20T20:11:50.967Z,6.63
2023-01-20T20:14:20.542Z,7.97
2023-01-20T20:16:47.983Z,7.60
2023-01-20T20:19:18.722Z,6.97
2023-01-20T20:21:45.882Z,6.57
2023-01-20T20:24:14.512Z,6.33
2023-01-20T20:26:41.757Z,6.43
2023-01-20T20:29:08.775Z,6.63
2023-01-20T20:31:37.434Z,6.87
2023-01-20T20:34:05.757Z,5.83
2023-01-20T20:36:33.656Z,6.90
2023-01-20T20:39:02.501Z,7.30
2023-01-20T20:41:31.550Z,7.17
2023-01-20T20:44:00.347Z,7.07
2023-01-20T20:46:28.213Z,6.67
2023-01-20T20:48:56.772Z,7.43
2023-01-20T20:51:26.037Z,6.17
2023-01-20T20:53:55.303Z,6.30
2023-01-20T20:56:22.424Z,5.63
2023-01-20T20:59:01.028Z,6.10
2023-01-20T21:01:30.637Z,5.80
2023-01-20T21:03:57.987Z,6.10
2023-01-20T21:06:25.501Z,6.43
2023-01-20T21:08:52.804Z,6.90
2023-01-20T21:11:20.561Z,7.03
2023-01-20T21:13:49.211Z,7.50
2023-01-20T21:16:19.776Z,6.17
2023-01-20T21:18:47.142Z,5.60
2023-01-20T21:21:14.465Z,5.70
2023-01-20T21:23:41.665Z,5.37
2023-01-20T21:26:12.365Z,5.17
2023-01-20T21:28:39.988Z,5.47
2023-01-20T21:31:10.055Z,5.17
2023-01-20T21:33:38.865Z,5.30
2023-01-20T21:36:07.260Z,5.50
2023-01-20T21:38:33.969Z,6.00
2023-01-20T21:41:09.859Z,5.30
2023-01-20T21:43:57.903Z,5.43
2023-01-20T21:46:26.127Z,6.13
2023-01-20T21:49:11.112Z,5.60
2023-01-20T21:51:56.326Z,5.37
2023-01-20T21:54:31.084Z,5.30
2023-01-20T21:56:58.898Z,5.30
2023-01-20T21:59:26.237Z,5.13
2023-01-20T22:01:53.525Z,5.10
2023-01-20T22:04:20.173Z,5.60
2023-01-20T22:06:46.791Z,5.93
2023-01-20T22:09:13.774Z,6.30
2023-01-20T22:11:40.516Z,6.03
2023-01-20T22:14:06.999Z,6.17
2023-01-20T22:16:33.942Z,6.27
2023-01-20T22:19:00.555Z,6.43
2023-01-20T22:21:27.099Z,5.97
2023-01-20T22:23:53.861Z,5.87
2023-01-20T22:26:20.673Z,5.67
2023-01-20T22:28:47.206Z,5.53
2023-01-20T22:31:23.906Z,5.87
2023-01-20T22:33:55.077Z,4.87
2023-01-20T22:36:23.034Z,4.63
2023-01-20T22:38:51.150Z,5.20
2023-01-20T22:41:18.964Z,6.37
2023-01-20T22:43:48.019Z,6.70
2023-01-20T22:46:16.433Z,6.97
2023-01-20T22:48:43.073Z,8.40
2023-01-20T22:51:21.429Z,7.50
2023-01-20T22:53:48.835Z,6.03
2023-01-20T22:56:20.873Z,5.43
2023-01-20T22:58:47.817Z,6.60
2023-01-20T23:01:15.215Z,5.30
2023-01-20T23:03:42.220Z,5.40
2023-01-20T23:06:09.696Z,5.40
2023-01-20T23:08:36.614Z,5.10
2023-01-20T23:11:11.968Z,4.90
2023-01-20T23:13:39.305Z,3.63
2023-01-20T23:16:10.099Z,4.17
2023-01-20T23:18:37.074Z,4.27
2023-01-20T23:21:05.807Z,4.00
2023-01-20T23:23:33.394Z,4.97
2023-01-20T23:26:09.822Z,4.63
2023-01-20T23:28:36.568Z,4.60
2023-01-20T23:31:06.170Z,4.90
2023-01-20T23:33:33.102Z,4.10
2023-01-20T23:36:04.702Z,4.53
2023-01-20T23:38:31.741Z,4.20
2023-01-20T23:40:58.504Z,4.17
2023-01-20T23:43:26.271Z,4.30
2023-01-20T23:45:56.920Z,4.47
2023-01-20T23:48:24.072Z,4.00
2023-01-20T23:50:51.711Z,3.93
2023-01-20T23:53:18.312Z,4.20
2023-01-20T23:55:45.309Z,3.83
2023-01-20T23:58:11.955Z,4.00
